createdAt,value
2019-04-16T00:00:25.418Z,41.30
2019-04-16T00:01:57.766Z,41.30
2019-04-16T00:03:30.254Z,41.40
2019-04-16T00:05:02.639Z,41.30
2019-04-16T00:06:35.046Z,41.30
2019-04-16T00:08:19.420Z,41.40
2019-04-16T00:09:41.518Z,41.40
2019-04-16T00:11:14.291Z,41.50
2019-04-16T00:12:46.699Z,41.50
2019-04-16T00:14:19.123Z,41.50
2019-04-16T00:15:51.537Z,41.60
2019-04-16T00:17:23.962Z,41.60
2019-04-16T00:18:58.151Z,41.60
2019-04-16T00:20:36.898Z,41.60
2019-04-16T00:22:11.502Z,41.70
2019-04-16T00:23:41.454Z,41.70
2019-04-16T00:25:13.863Z,41.70
2019-04-16T00:26:46.269Z,41.70
2019-04-16T00:28:18.738Z,41.80
2019-04-16T00:29:51.222Z,41.90
2019-04-16T00:31:23.639Z,41.90
2019-04-16T00:32:56.052Z,41.90
2019-04-16T00:34:28.407Z,41.90
2019-04-16T00:36:00.782Z,42.00
2019-04-16T00:37:33.111Z,42.00
2019-04-16T00:39:05.597Z,42.10
2019-04-16T00:40:38.038Z,42.10
2019-04-16T00:42:10.401Z,42.10
2019-04-16T00:43:44.234Z,42.10
2019-04-16T00:45:16.890Z,42.20
2019-04-16T00:46:49.250Z,42.20
2019-04-16T00:48:21.679Z,42.30
2019-04-16T00:49:57.566Z,42.30
2019-04-16T00:51:28.222Z,43.20
2019-04-16T00:53:00.630Z,42.40
2019-04-16T00:54:33.048Z,42.40
2019-04-16T00:56:05.452Z,42.40
2019-04-16T00:57:37.930Z,42.40
2019-04-16T00:59:10.350Z,42.40
2019-04-16T01:00:42.729Z,42.50
2019-04-16T01:02:15.224Z,42.60
2019-04-16T01:03:47.726Z,42.50
2019-04-16T01:05:20.090Z,42.60
2019-04-16T01:06:52.535Z,42.50
2019-04-16T01:08:24.950Z,42.60
2019-04-16T01:09:57.294Z,42.60
2019-04-16T01:11:29.892Z,42.70
2019-04-16T01:13:02.379Z,42.70
2019-04-16T01:14:34.738Z,42.70
2019-04-16T01:16:07.142Z,42.70
2019-04-16T01:17:39.942Z,42.80
2019-04-16T01:19:12.382Z,42.70
2019-04-16T01:20:44.794Z,42.90
2019-04-16T01:22:17.289Z,43.00
2019-04-16T01:23:49.722Z,43.10
2019-04-16T01:25:23.339Z,43.20
2019-04-16T01:26:58.366Z,43.20
2019-04-16T01:28:31.970Z,43.30
2019-04-16T01:30:06.381Z,43.40
2019-04-16T01:31:39.326Z,43.50
2019-04-16T01:33:14.252Z,43.50
2019-04-16T01:34:47.041Z,43.70
2019-04-16T01:36:20.309Z,43.70
2019-04-16T01:37:56.490Z,43.80
2019-04-16T01:39:28.198Z,43.80
2019-04-16T01:41:00.556Z,44.60
2019-04-16T01:42:32.915Z,44.00
2019-04-16T01:44:05.357Z,44.00
2019-04-16T01:45:37.759Z,44.10
2019-04-16T01:47:10.091Z,44.30
2019-04-16T01:48:42.506Z,44.30
2019-04-16T01:50:14.927Z,44.40
2019-04-16T01:51:47.576Z,44.40
2019-04-16T01:53:21.093Z,44.50
2019-04-16T01:54:54.862Z,44.60
2019-04-16T01:56:29.386Z,44.70
2019-04-16T01:58:02.821Z,44.70
2019-04-16T01:59:36.474Z,44.70
2019-04-16T02:01:11.167Z,44.70
2019-04-16T02:02:43.491Z,44.80
2019-04-16T02:04:19.568Z,44.90
2019-04-16T02:05:54.592Z,44.90
2019-04-16T02:07:27.937Z,45.00
2019-04-16T02:09:02.958Z,45.10
2019-04-16T02:10:35.501Z,45.10
2019-04-16T02:12:07.895Z,45.20
2019-04-16T02:13:45.807Z,45.30
2019-04-16T02:15:15.994Z,45.30
2019-04-16T02:16:48.413Z,45.40
2019-04-16T02:18:20.840Z,45.50
2019-04-16T02:19:53.341Z,45.50
2019-04-16T02:21:25.754Z,45.50
2019-04-16T02:22:58.094Z,45.60
2019-04-16T02:24:30.438Z,45.70
2019-04-16T02:26:03.176Z,46.40
2019-04-16T02:27:35.674Z,45.80
2019-04-16T02:29:08.050Z,45.90
2019-04-16T02:30:40.451Z,45.90
2019-04-16T02:32:12.895Z,46.00
2019-04-16T02:33:45.254Z,46.00
2019-04-16T02:35:17.738Z,46.00
2019-04-16T02:36:50.546Z,46.10
2019-04-16T02:38:22.901Z,46.10
2019-04-16T02:39:57.427Z,46.20
2019-04-16T02:41:29.912Z,46.30
2019-04-16T02:43:06.539Z,46.30
2019-04-16T02:44:38.057Z,46.30
2019-04-16T02:46:10.520Z,46.40
2019-04-16T02:47:42.928Z,46.40
2019-04-16T02:49:15.280Z,46.50
2019-04-16T02:50:47.757Z,46.50
2019-04-16T02:52:20.133Z,46.60
2019-04-16T02:53:54.381Z,46.60
2019-04-16T02:55:26.707Z,46.70
2019-04-16T02:56:59.140Z,46.70
2019-04-16T02:58:34.388Z,47.00
2019-04-16T03:00:05.614Z,46.80
2019-04-16T03:01:37.946Z,46.80
2019-04-16T03:03:10.549Z,47.70
2019-04-16T03:04:42.915Z,47.00
2019-04-16T03:06:15.327Z,47.00
2019-04-16T03:07:47.751Z,47.00
2019-04-16T03:09:20.189Z,47.00
2019-04-16T03:10:52.614Z,47.00
2019-04-16T03:12:25.116Z,47.00
2019-04-16T03:13:59.290Z,47.00
2019-04-16T03:15:33.704Z,47.00
2019-04-16T03:17:07.038Z,47.10
2019-04-16T03:18:39.735Z,47.20
2019-04-16T03:20:12.091Z,47.20
2019-04-16T03:21:44.871Z,47.30
2019-04-16T03:23:17.366Z,47.40
2019-04-16T03:24:49.700Z,47.40
2019-04-16T03:26:22.046Z,47.50
2019-04-16T03:27:55.096Z,47.70
2019-04-16T03:29:30.391Z,47.80
2019-04-16T03:31:01.710Z,47.80
2019-04-16T03:32:36.205Z,47.90
2019-04-16T03:34:08.572Z,47.90
2019-04-16T03:35:41.072Z,47.90
2019-04-16T03:37:14.372Z,48.00
2019-04-16T03:38:46.725Z,47.90
2019-04-16T03:40:24.871Z,48.00
2019-04-16T03:41:56.002Z,48.00
2019-04-16T03:43:31.870Z,48.10
2019-04-16T03:45:01.426Z,48.10
2019-04-16T03:46:33.843Z,48.20
2019-04-16T03:48:06.199Z,48.30
2019-04-16T03:49:38.650Z,48.30
2019-04-16T03:51:11.146Z,48.30
2019-04-16T03:52:45.804Z,48.50
2019-04-16T03:54:18.840Z,48.40
2019-04-16T03:55:51.700Z,48.40
2019-04-16T03:57:25.671Z,48.50
2019-04-16T03:58:58.022Z,49.20
2019-04-16T04:00:30.455Z,48.60
2019-04-16T04:02:02.861Z,48.70
2019-04-16T04:03:35.338Z,48.70
2019-04-16T04:05:07.852Z,48.80
2019-04-16T04:06:40.604Z,48.90
2019-04-16T04:08:16.147Z,48.90
2019-04-16T04:09:47.228Z,49.80
2019-04-16T04:11:19.580Z,49.00
2019-04-16T04:12:51.999Z,49.00
2019-04-16T04:14:24.805Z,49.00
2019-04-16T04:15:58.602Z,49.00
2019-04-16T04:17:31.406Z,49.00
2019-04-16T04:19:03.841Z,49.10
2019-04-16T04:20:36.260Z,49.10
2019-04-16T04:22:08.670Z,49.20
2019-04-16T04:23:41.078Z,49.30
2019-04-16T04:25:13.493Z,49.30
2019-04-16T04:26:46.071Z,49.30
2019-04-16T04:28:20.042Z,49.40
2019-04-16T04:29:53.692Z,49.40
2019-04-16T04:31:32.019Z,49.40
2019-04-16T04:33:01.066Z,49.50
2019-04-16T04:34:33.418Z,49.50
2019-04-16T04:36:05.899Z,49.60
2019-04-16T04:37:38.298Z,49.60
2019-04-16T04:39:14.931Z,49.70
2019-04-16T04:40:47.991Z,49.70
2019-04-16T04:42:19.593Z,49.70
2019-04-16T04:43:52.211Z,49.80
2019-04-16T04:45:24.779Z,49.80
2019-04-16T04:46:57.184Z,49.90
2019-04-16T04:48:29.614Z,50.00
2019-04-16T04:50:03.457Z,50.00
2019-04-16T04:51:36.471Z,50.70
2019-04-16T04:53:10.306Z,50.10
2019-04-16T04:54:42.702Z,50.10
2019-04-16T04:56:15.126Z,50.20
2019-04-16T04:57:47.458Z,50.20
2019-04-16T04:59:19.962Z,50.20
2019-04-16T05:00:52.382Z,50.20
2019-04-16T05:02:24.802Z,50.30
2019-04-16T05:03:57.206Z,50.20
2019-04-16T05:05:29.634Z,50.30
2019-04-16T05:07:04.589Z,50.30
2019-04-16T05:08:36.026Z,50.30
2019-04-16T05:10:08.540Z,50.40
2019-04-16T05:11:40.912Z,50.50
2019-04-16T05:13:13.317Z,50.40
2019-04-16T05:14:45.793Z,50.50
2019-04-16T05:16:18.123Z,50.50
2019-04-16T05:17:50.521Z,50.50
2019-04-16T05:19:22.951Z,50.70
2019-04-16T05:20:55.590Z,50.70
2019-04-16T05:22:27.956Z,50.80
2019-04-16T05:24:00.422Z,50.90
2019-04-16T05:25:34.073Z,50.90
2019-04-16T05:27:08.571Z,51.00
2019-04-16T05:28:44.521Z,51.00
2019-04-16T05:30:20.130Z,51.00
2019-04-16T05:31:49.166Z,51.10
2019-04-16T05:33:21.582Z,51.20
2019-04-16T05:34:53.918Z,51.30
2019-04-16T05:36:26.351Z,51.40
2019-04-16T05:37:58.779Z,51.30
2019-04-16T05:39:31.198Z,51.50
2019-04-16T05:41:13.063Z,51.40
2019-04-16T05:42:37.803Z,51.50
2019-04-16T05:44:10.173Z,51.60
2019-04-16T05:45:42.657Z,51.50
2019-04-16T05:47:18.089Z,51.60
2019-04-16T05:48:51.384Z,51.60
2019-04-16T05:50:23.141Z,51.70
2019-04-16T05:51:55.558Z,51.60
2019-04-16T05:53:27.903Z,51.60
2019-04-16T05:55:01.613Z,51.60
2019-04-16T05:56:34.186Z,51.70
2019-04-16T05:58:06.601Z,51.60
2019-04-16T05:59:39.019Z,51.60
2019-04-16T06:01:13.706Z,51.70
2019-04-16T06:02:49.410Z,51.60
2019-04-16T06:04:24.249Z,51.60
2019-04-16T06:05:56.311Z,51.70
2019-04-16T06:07:27.707Z,51.70
2019-04-16T06:09:02.459Z,51.70
2019-04-16T06:10:34.866Z,51.80
2019-04-16T06:12:09.534Z,51.80
2019-04-16T06:13:44.502Z,51.80
2019-04-16T06:15:21.331Z,51.80
2019-04-16T06:16:50.301Z,51.80
2019-04-16T06:18:22.764Z,51.80
2019-04-16T06:19:55.182Z,52.00
2019-04-16T06:21:27.601Z,51.90
2019-04-16T06:23:00.875Z,51.90
2019-04-16T06:24:35.804Z,52.60
2019-04-16T06:26:14.685Z,52.00
2019-04-16T06:27:42.130Z,52.20
2019-04-16T06:29:14.478Z,52.10
2019-04-16T06:30:46.820Z,52.20
2019-04-16T06:32:19.352Z,52.30
2019-04-16T06:33:51.792Z,53.00
2019-04-16T06:35:24.258Z,52.40
2019-04-16T06:36:56.614Z,52.50
2019-04-16T06:38:28.956Z,52.50
2019-04-16T06:40:01.862Z,52.60
2019-04-16T06:41:41.780Z,52.60
2019-04-16T06:43:10.402Z,52.60
2019-04-16T06:44:44.388Z,52.60
2019-04-16T06:46:16.753Z,52.50
2019-04-16T06:47:49.269Z,52.50
2019-04-16T06:49:21.616Z,52.50
2019-04-16T06:50:54.441Z,52.50
2019-04-16T06:52:26.918Z,52.60
2019-04-16T06:53:59.262Z,52.60
2019-04-16T06:55:34.913Z,53.30
2019-04-16T06:57:05.924Z,52.60
2019-04-16T06:58:50.869Z,52.60
2019-04-16T07:00:12.573Z,52.50
2019-04-16T07:01:44.901Z,52.50
2019-04-16T07:03:17.340Z,52.60
2019-04-16T07:04:49.834Z,52.60
2019-04-16T07:06:22.250Z,52.60
2019-04-16T07:07:54.623Z,52.60
2019-04-16T07:09:40.545Z,52.60
2019-04-16T07:11:01.220Z,52.90
2019-04-16T07:12:37.948Z,52.70
2019-04-16T07:14:07.786Z,52.70
2019-04-16T07:15:40.188Z,52.80
2019-04-16T07:17:12.607Z,52.80
2019-04-16T07:18:45.050Z,52.80
2019-04-16T07:20:17.459Z,53.50
2019-04-16T07:21:51.022Z,52.80
2019-04-16T07:23:24.807Z,52.80
2019-04-16T07:25:00.822Z,52.80
2019-04-16T07:26:32.122Z,52.80
2019-04-16T07:28:05.016Z,52.90
2019-04-16T07:29:39.408Z,52.90
2019-04-16T07:31:16.540Z,52.90
2019-04-16T07:32:45.899Z,52.90
2019-04-16T07:34:20.028Z,53.00
2019-04-16T07:35:52.892Z,52.90
2019-04-16T07:37:25.639Z,52.90
2019-04-16T07:38:58.491Z,52.90
2019-04-16T07:40:30.946Z,52.90
2019-04-16T07:42:10.537Z,52.90
2019-04-16T07:43:37.434Z,52.90
2019-04-16T07:45:12.571Z,52.90
2019-04-16T07:46:44.251Z,52.90
2019-04-16T07:48:22.812Z,52.90
2019-04-16T07:49:52.139Z,52.90
2019-04-16T07:51:24.644Z,52.80
2019-04-16T07:52:57.106Z,52.90
2019-04-16T07:54:32.333Z,52.80
2019-04-16T07:56:04.814Z,52.80
2019-04-16T07:57:37.161Z,52.70
2019-04-16T07:59:09.566Z,52.80
2019-04-16T08:00:41.921Z,52.70
2019-04-16T08:02:14.298Z,52.60
2019-04-16T08:03:46.702Z,53.40
2019-04-16T08:05:19.414Z,52.60
2019-04-16T08:06:51.843Z,52.60
2019-04-16T08:08:25.329Z,52.50
2019-04-16T08:10:01.688Z,52.50
2019-04-16T08:11:32.412Z,52.50
2019-04-16T08:13:04.781Z,52.50
2019-04-16T08:14:37.786Z,52.40
2019-04-16T08:16:10.364Z,52.30
2019-04-16T08:17:42.719Z,52.30
2019-04-16T08:19:16.161Z,52.20
2019-04-16T08:21:00.298Z,52.10
2019-04-16T08:22:22.841Z,52.10
2019-04-16T08:23:55.564Z,52.10
2019-04-16T08:25:33.662Z,52.00
2019-04-16T08:27:02.202Z,52.00
2019-04-16T08:28:34.667Z,52.00
2019-04-16T08:30:07.067Z,52.00
2019-04-16T08:31:40.772Z,51.90
2019-04-16T08:33:13.595Z,51.80
2019-04-16T08:34:46.105Z,52.50
2019-04-16T08:36:21.085Z,52.50
2019-04-16T08:37:53.567Z,51.80
2019-04-16T08:39:25.986Z,51.70
2019-04-16T08:40:58.324Z,51.60
2019-04-16T08:42:43.681Z,51.60
2019-04-16T08:44:05.070Z,51.50
2019-04-16T08:45:39.854Z,51.40
2019-04-16T08:47:12.875Z,51.30
2019-04-16T08:48:48.972Z,51.20
2019-04-16T08:50:19.514Z,51.00
2019-04-16T08:51:51.875Z,51.00
2019-04-16T08:53:24.514Z,50.90
2019-04-16T08:54:56.931Z,50.80
2019-04-16T08:56:29.450Z,50.70
2019-04-16T08:58:06.110Z,50.70
2019-04-16T08:59:35.904Z,50.60
2019-04-16T09:01:08.400Z,50.50
2019-04-16T09:02:40.862Z,50.50
2019-04-16T09:04:13.283Z,50.20
2019-04-16T09:05:48.575Z,50.10
2019-04-16T09:07:21.025Z,50.00
2019-04-16T09:08:53.827Z,49.80
2019-04-16T09:10:30.053Z,49.70
2019-04-16T09:12:00.516Z,49.50
2019-04-16T09:13:34.157Z,49.40
2019-04-16T09:15:06.830Z,49.30
2019-04-16T09:16:39.519Z,49.20
2019-04-16T09:18:11.947Z,49.00
2019-04-16T09:19:44.536Z,48.90
2019-04-16T09:21:17.134Z,48.70
2019-04-16T09:22:52.784Z,48.50
2019-04-16T09:24:23.626Z,48.40
2019-04-16T09:26:11.253Z,48.30
2019-04-16T09:27:33.973Z,48.10
2019-04-16T09:29:09.525Z,47.90
2019-04-16T09:30:38.708Z,47.70
2019-04-16T09:32:11.114Z,47.60
2019-04-16T09:33:43.650Z,47.40
2019-04-16T09:35:19.758Z,47.30
2019-04-16T09:36:50.233Z,46.90
2019-04-16T09:38:22.652Z,46.80
2019-04-16T09:39:55.138Z,46.60
2019-04-16T09:41:27.574Z,46.40
2019-04-16T09:42:59.990Z,46.90
2019-04-16T09:44:35.188Z,46.10
2019-04-16T09:46:10.924Z,46.00
2019-04-16T09:47:40.566Z,45.90
2019-04-16T09:49:14.804Z,45.70
2019-04-16T09:50:47.940Z,45.50
2019-04-16T09:52:22.950Z,45.40
2019-04-16T09:53:54.708Z,45.20
2019-04-16T09:55:27.046Z,44.90
2019-04-16T09:57:00.645Z,44.80
2019-04-16T09:58:34.892Z,44.60
2019-04-16T10:00:08.391Z,44.50
2019-04-16T10:01:41.054Z,44.20
2019-04-16T10:03:13.760Z,44.10
2019-04-16T10:04:46.158Z,44.00
2019-04-16T10:06:18.575Z,43.80
2019-04-16T10:07:50.914Z,43.60
2019-04-16T10:09:23.355Z,43.40
2019-04-16T10:10:58.144Z,43.20
2019-04-16T10:12:29.949Z,42.90
2019-04-16T10:14:02.323Z,42.80
2019-04-16T10:15:35.204Z,42.60
2019-04-16T10:17:07.647Z,43.00
2019-04-16T10:18:40.097Z,42.30
2019-04-16T10:20:12.770Z,42.10
2019-04-16T10:21:45.378Z,42.10
2019-04-16T10:23:17.739Z,42.00
2019-04-16T10:24:50.252Z,41.90
2019-04-16T10:26:22.710Z,41.80
2019-04-16T10:27:57.462Z,41.70
2019-04-16T10:29:29.915Z,42.30
2019-04-16T10:31:02.385Z,41.60
2019-04-16T10:32:34.722Z,41.40
2019-04-16T10:34:07.216Z,41.40
2019-04-16T10:35:39.638Z,41.20
2019-04-16T10:37:11.999Z,41.90
2019-04-16T10:38:44.794Z,40.90
2019-04-16T10:40:17.181Z,40.90
2019-04-16T10:41:49.596Z,40.90
2019-04-16T10:43:22.100Z,40.70
2019-04-16T10:44:54.553Z,40.80
2019-04-16T10:46:26.891Z,40.40
2019-04-16T10:47:59.336Z,40.30
2019-04-16T10:49:31.743Z,40.00
2019-04-16T10:51:04.298Z,39.90
2019-04-16T10:52:36.710Z,39.80
2019-04-16T10:54:09.211Z,39.50
2019-04-16T10:55:41.580Z,39.40
2019-04-16T10:57:14.375Z,39.30
2019-04-16T10:58:46.867Z,39.20
2019-04-16T11:00:19.237Z,39.10
2019-04-16T11:01:51.746Z,39.80
2019-04-16T11:03:24.250Z,38.90
2019-04-16T11:04:56.626Z,38.80
2019-04-16T11:06:29.150Z,38.70
2019-04-16T11:08:04.286Z,38.50
2019-04-16T11:09:35.650Z,38.40
2019-04-16T11:11:08.090Z,38.30
2019-04-16T11:12:40.580Z,38.20
2019-04-16T11:14:13.009Z,38.00
2019-04-16T11:15:45.716Z,38.00
2019-04-16T11:17:18.187Z,38.00
2019-04-16T11:18:50.545Z,37.90
2019-04-16T11:20:22.955Z,37.70
2019-04-16T11:21:55.383Z,37.60
2019-04-16T11:23:27.797Z,37.30
2019-04-16T11:25:00.303Z,37.10
2019-04-16T11:26:32.720Z,36.80
2019-04-16T11:28:05.096Z,36.70
2019-04-16T11:29:38.358Z,36.70
2019-04-16T11:31:11.722Z,36.50
2019-04-16T11:32:44.200Z,36.40
2019-04-16T11:34:16.670Z,36.30
2019-04-16T11:35:52.778Z,36.20
2019-04-16T11:37:23.229Z,36.70
2019-04-16T11:38:55.715Z,35.80
2019-04-16T11:40:28.221Z,35.70
2019-04-16T11:42:00.614Z,35.60
2019-04-16T11:43:33.086Z,35.40
2019-04-16T11:45:05.624Z,35.40
2019-04-16T11:46:38.052Z,35.10
2019-04-16T11:48:10.632Z,35.10
2019-04-16T11:49:43.222Z,35.00
2019-04-16T11:51:15.717Z,34.80
2019-04-16T11:52:48.136Z,34.60
2019-04-16T11:54:20.622Z,34.40
2019-04-16T11:55:53.092Z,34.20
2019-04-16T11:57:25.559Z,34.00
2019-04-16T11:58:58.418Z,33.80
2019-04-16T12:00:30.752Z,33.70
2019-04-16T12:02:03.274Z,33.70
2019-04-16T12:03:36.753Z,33.50
2019-04-16T12:05:09.289Z,33.30
2019-04-16T12:06:41.738Z,33.20
2019-04-16T12:08:14.298Z,32.90
2019-04-16T12:09:46.734Z,32.80
2019-04-16T12:11:19.175Z,32.60
2019-04-16T12:12:51.540Z,32.50
2019-04-16T12:14:32.305Z,32.40
2019-04-16T12:15:58.301Z,32.30
2019-04-16T12:17:30.891Z,32.20
2019-04-16T12:19:03.289Z,32.00
2019-04-16T12:20:35.774Z,31.90
2019-04-16T12:22:08.466Z,31.70
2019-04-16T12:23:40.923Z,31.60
2019-04-16T12:25:13.356Z,31.40
2019-04-16T12:26:46.188Z,31.30
2019-04-16T12:28:18.595Z,31.10
2019-04-16T12:29:51.084Z,31.00
2019-04-16T12:31:23.552Z,30.70
2019-04-16T12:32:55.899Z,30.40
2019-04-16T12:34:28.280Z,30.20
2019-04-16T12:36:00.730Z,30.00
2019-04-16T12:37:37.343Z,29.70
2019-04-16T12:39:07.207Z,29.30
2019-04-16T12:40:42.187Z,29.00
2019-04-16T12:42:13.795Z,28.70
2019-04-16T12:43:50.801Z,28.40
2019-04-16T12:45:20.575Z,28.30
2019-04-16T12:46:52.997Z,28.20
2019-04-16T12:48:25.751Z,28.20
2019-04-16T12:49:58.372Z,28.20
2019-04-16T12:51:30.786Z,28.20
2019-04-16T12:53:03.295Z,28.20
2019-04-16T12:54:37.741Z,28.20
2019-04-16T12:56:09.828Z,28.10
2019-04-16T12:57:46.886Z,28.10
2019-04-16T12:59:16.602Z,28.30
2019-04-16T13:00:48.952Z,28.30
2019-04-16T13:02:21.729Z,28.30
2019-04-16T13:03:54.179Z,28.40
2019-04-16T13:05:26.551Z,28.40
2019-04-16T13:06:59.026Z,28.20
2019-04-16T13:08:31.594Z,28.00
2019-04-16T13:10:04.204Z,27.70
2019-04-16T13:11:36.766Z,27.40
2019-04-16T13:13:09.336Z,27.00
2019-04-16T13:14:41.675Z,26.30
2019-04-16T13:16:14.300Z,25.70
2019-04-16T13:17:47.810Z,25.20
2019-04-16T13:19:21.202Z,24.80
2019-04-16T13:20:57.057Z,24.30
2019-04-16T13:22:27.852Z,24.10
2019-04-16T13:24:00.251Z,23.60
2019-04-16T13:25:32.767Z,23.10
2019-04-16T13:27:05.627Z,23.10
2019-04-16T13:28:38.129Z,22.20
2019-04-16T13:30:10.696Z,21.90
2019-04-16T13:31:43.442Z,21.50
2019-04-16T13:33:15.941Z,21.30
2019-04-16T13:34:48.862Z,21.00
2019-04-16T13:36:26.732Z,20.70
2019-04-16T13:37:56.040Z,20.50
2019-04-16T13:39:28.627Z,20.40
2019-04-16T13:41:02.337Z,20.20
2019-04-16T13:42:35.241Z,20.20
2019-04-16T13:44:09.515Z,20.30
2019-04-16T13:45:42.209Z,19.50
2019-04-16T13:47:14.645Z,19.40
2019-04-16T13:48:47.162Z,19.20
2019-04-16T13:50:19.582Z,18.90
2019-04-16T13:51:51.925Z,18.80
2019-04-16T13:53:28.693Z,18.70
2019-04-16T13:54:58.774Z,18.60
2019-04-16T13:56:31.110Z,18.70
2019-04-16T13:58:03.526Z,18.60
2019-04-16T13:59:35.888Z,18.40
2019-04-16T14:01:10.381Z,18.40
2019-04-16T14:02:42.348Z,18.40
2019-04-16T14:04:14.972Z,18.30
2019-04-16T14:05:47.351Z,18.30
2019-04-16T14:07:19.831Z,18.40
2019-04-16T14:08:52.475Z,18.50
2019-04-16T14:10:24.891Z,18.60
2019-04-16T14:11:57.330Z,18.80
2019-04-16T14:13:29.822Z,19.00
2019-04-16T14:15:05.714Z,19.20
2019-04-16T14:16:36.274Z,19.40
2019-04-16T14:18:08.742Z,19.60
2019-04-16T14:19:41.330Z,19.70
2019-04-16T14:21:13.798Z,19.90
2019-04-16T14:22:46.218Z,20.00
2019-04-16T14:24:18.570Z,20.20
2019-04-16T14:25:51.098Z,20.30
2019-04-16T14:27:23.576Z,20.50
2019-04-16T14:28:56.955Z,21.10
2019-04-16T14:30:29.595Z,20.70
2019-04-16T14:32:02.214Z,20.90
2019-04-16T14:33:34.606Z,21.00
2019-04-16T14:35:07.245Z,21.20
2019-04-16T14:36:39.720Z,21.20
2019-04-16T14:38:12.079Z,21.20
2019-04-16T14:39:44.439Z,21.20
2019-04-16T14:41:16.782Z,21.30
2019-04-16T14:42:49.133Z,21.50
2019-04-16T14:44:21.539Z,21.60
2019-04-16T14:45:59.395Z,21.80
2019-04-16T14:47:29.869Z,21.90
2019-04-16T14:49:02.138Z,22.10
2019-04-16T14:50:34.517Z,22.20
2019-04-16T14:52:06.925Z,22.20
2019-04-16T14:53:39.495Z,22.40
2019-04-16T14:55:11.927Z,22.50
2019-04-16T14:56:44.369Z,22.60
2019-04-16T14:58:16.772Z,22.60
2019-04-16T14:59:49.187Z,22.70
2019-04-16T15:01:21.618Z,22.60
2019-04-16T15:02:54.399Z,22.50
2019-04-16T15:04:27.468Z,22.30
2019-04-16T15:06:00.346Z,22.00
2019-04-16T15:07:33.134Z,21.90
2019-04-16T15:09:05.583Z,21.60
2019-04-16T15:10:37.921Z,21.40
2019-04-16T15:12:10.614Z,21.20
2019-04-16T15:13:43.147Z,21.00
2019-04-16T15:15:15.566Z,20.90
2019-04-16T15:16:50.770Z,20.80
2019-04-16T15:18:22.072Z,20.80
2019-04-16T15:19:54.420Z,20.90
2019-04-16T15:21:26.801Z,21.00
2019-04-16T15:22:59.223Z,21.10
2019-04-16T15:24:31.630Z,21.20
2019-04-16T15:26:05.290Z,21.30
2019-04-16T15:27:37.874Z,21.50
2019-04-16T15:29:10.231Z,21.70
2019-04-16T15:30:42.787Z,21.80
2019-04-16T15:32:15.430Z,22.00
2019-04-16T15:33:47.915Z,22.20
2019-04-16T15:35:23.684Z,22.30
2019-04-16T15:36:56.552Z,22.50
2019-04-16T15:38:29.604Z,22.70
2019-04-16T15:40:06.979Z,22.80
2019-04-16T15:41:37.214Z,22.90
2019-04-16T15:43:09.555Z,23.00
2019-04-16T15:44:41.978Z,23.20
2019-04-16T15:46:26.234Z,23.90
2019-04-16T15:47:50.425Z,23.40
2019-04-16T15:49:45.508Z,23.70
2019-04-16T15:51:17.134Z,23.80
2019-04-16T15:52:53.182Z,24.00
2019-04-16T15:54:25.706Z,24.20
2019-04-16T15:55:58.183Z,24.30
2019-04-16T15:57:30.598Z,24.50
2019-04-16T15:59:03.081Z,24.70
2019-04-16T16:00:35.496Z,24.90
2019-04-16T16:02:07.990Z,25.00
2019-04-16T16:03:40.730Z,25.20
2019-04-16T16:05:13.215Z,25.30
2019-04-16T16:06:45.558Z,25.40
2019-04-16T16:08:17.950Z,25.50
2019-04-16T16:09:50.547Z,25.80
2019-04-16T16:11:24.578Z,25.90
2019-04-16T16:12:56.902Z,25.90
2019-04-16T16:14:32.999Z,25.90
2019-04-16T16:16:03.336Z,25.90
2019-04-16T16:17:35.826Z,25.90
2019-04-16T16:19:12.052Z,25.90
2019-04-16T16:20:42.564Z,25.90
2019-04-16T16:22:14.945Z,26.00
2019-04-16T16:23:47.370Z,26.00
2019-04-16T16:25:19.962Z,26.10
2019-04-16T16:26:52.391Z,26.10
2019-04-16T16:28:25.067Z,26.20
2019-04-16T16:29:57.410Z,26.30
2019-04-16T16:31:33.613Z,26.40
2019-04-16T16:33:04.288Z,26.40
2019-04-16T16:34:36.718Z,26.40
2019-04-16T16:36:09.210Z,26.50
2019-04-16T16:37:41.603Z,26.50
2019-04-16T16:39:14.001Z,26.60
2019-04-16T16:40:49.468Z,26.50
2019-04-16T16:42:20.661Z,26.60
2019-04-16T16:43:52.983Z,26.70
2019-04-16T16:45:25.398Z,26.70
2019-04-16T16:46:58.609Z,26.80
2019-04-16T16:48:31.415Z,26.80
2019-04-16T16:50:03.846Z,26.80
2019-04-16T16:51:36.187Z,26.90
2019-04-16T16:53:09.731Z,26.90
2019-04-16T16:54:42.269Z,27.00
2019-04-16T16:56:14.679Z,26.90
2019-04-16T16:57:47.086Z,26.80
2019-04-16T16:59:19.506Z,26.80
2019-04-16T17:00:51.921Z,26.80
2019-04-16T17:02:24.258Z,26.80
2019-04-16T17:03:56.899Z,27.00
2019-04-16T17:05:29.431Z,27.00
2019-04-16T17:07:01.793Z,27.00
2019-04-16T17:08:34.213Z,27.60
2019-04-16T17:10:06.768Z,27.10
2019-04-16T17:11:40.190Z,27.10
2019-04-16T17:13:14.615Z,27.10
2019-04-16T17:14:47.486Z,27.20
2019-04-16T17:16:19.928Z,27.30
2019-04-16T17:17:52.352Z,27.50
2019-04-16T17:19:25.166Z,27.60
2019-04-16T17:20:59.064Z,27.60
2019-04-16T17:22:31.513Z,27.70
2019-04-16T17:24:04.071Z,27.90
2019-04-16T17:25:36.988Z,28.00
2019-04-16T17:27:09.530Z,28.00
2019-04-16T17:28:43.444Z,28.10
2019-04-16T17:30:16.302Z,28.30
2019-04-16T17:31:48.798Z,28.20
2019-04-16T17:33:21.212Z,28.40
2019-04-16T17:34:53.711Z,28.50
2019-04-16T17:36:26.271Z,28.60
2019-04-16T17:38:01.834Z,28.60
2019-04-16T17:39:32.925Z,28.70
2019-04-16T17:41:05.575Z,28.70
2019-04-16T17:42:38.560Z,28.80
2019-04-16T17:44:11.098Z,28.90
2019-04-16T17:45:43.704Z,28.90
2019-04-16T17:47:31.379Z,28.90
2019-04-16T17:48:50.348Z,29.00
2019-04-16T17:50:23.088Z,29.00
2019-04-16T17:51:55.486Z,29.10
2019-04-16T17:53:28.025Z,29.20
2019-04-16T17:55:00.531Z,29.20
2019-04-16T17:56:32.967Z,29.30
2019-04-16T17:58:05.382Z,29.40
2019-04-16T17:59:37.871Z,29.40
2019-04-16T18:01:11.117Z,29.50
2019-04-16T18:02:43.611Z,29.50
2019-04-16T18:04:15.950Z,29.60
2019-04-16T18:05:48.335Z,29.70
2019-04-16T18:07:20.779Z,29.80
2019-04-16T18:08:53.222Z,29.70
2019-04-16T18:10:26.906Z,29.80
2019-04-16T18:11:59.601Z,29.90
2019-04-16T18:13:32.911Z,29.90
2019-04-16T18:15:08.885Z,30.00
2019-04-16T18:16:39.638Z,30.00
2019-04-16T18:18:15.741Z,30.00
2019-04-16T18:19:46.530Z,30.10
2019-04-16T18:21:18.878Z,30.20
2019-04-16T18:22:51.229Z,30.30
2019-04-16T18:24:23.737Z,30.40
2019-04-16T18:25:57.410Z,30.40
2019-04-16T18:27:30.693Z,30.60
2019-04-16T18:29:03.033Z,30.70
2019-04-16T18:30:35.363Z,30.70
2019-04-16T18:32:07.769Z,30.90
2019-04-16T18:33:40.163Z,30.80
2019-04-16T18:35:16.147Z,30.80
2019-04-16T18:36:46.595Z,30.80
2019-04-16T18:38:21.956Z,30.90
2019-04-16T18:39:53.088Z,30.90
2019-04-16T18:41:27.717Z,31.00
2019-04-16T18:42:59.606Z,31.10
2019-04-16T18:44:31.991Z,31.20
2019-04-16T18:46:04.570Z,31.20
2019-04-16T18:47:37.093Z,31.40
2019-04-16T18:49:09.521Z,31.40
2019-04-16T18:50:41.970Z,31.50
2019-04-16T18:52:14.459Z,31.70
2019-04-16T18:53:47.024Z,31.60
2019-04-16T18:55:19.440Z,31.80
2019-04-16T18:56:52.335Z,31.70
2019-04-16T18:58:24.874Z,31.90
2019-04-16T18:59:57.290Z,31.90
2019-04-16T19:01:33.399Z,32.00
2019-04-16T19:03:05.953Z,31.90
2019-04-16T19:04:40.839Z,32.00
2019-04-16T19:06:12.584Z,32.10
2019-04-16T19:07:45.435Z,32.20
2019-04-16T19:09:20.782Z,32.20
2019-04-16T19:10:52.807Z,32.20
2019-04-16T19:12:25.772Z,32.30
2019-04-16T19:13:58.292Z,32.40
2019-04-16T19:15:30.780Z,32.60
2019-04-16T19:17:03.384Z,32.80
2019-04-16T19:18:35.814Z,32.80
2019-04-16T19:20:08.325Z,33.00
2019-04-16T19:21:42.554Z,32.90
2019-04-16T19:23:15.050Z,32.90
2019-04-16T19:24:47.460Z,33.00
2019-04-16T19:26:19.995Z,33.10
2019-04-16T19:27:52.574Z,33.30
2019-04-16T19:29:25.297Z,33.40
2019-04-16T19:30:57.925Z,33.40
2019-04-16T19:32:30.422Z,33.50
2019-04-16T19:34:09.039Z,33.50
2019-04-16T19:35:37.134Z,33.60
2019-04-16T19:37:09.554Z,33.70
2019-04-16T19:38:42.033Z,33.90
2019-04-16T19:40:16.085Z,34.00
2019-04-16T19:41:49.159Z,34.00
2019-04-16T19:43:22.043Z,34.20
2019-04-16T19:44:58.375Z,34.40
2019-04-16T19:46:29.346Z,34.40
2019-04-16T19:48:02.350Z,34.50
2019-04-16T19:49:35.210Z,34.60
2019-04-16T19:51:08.936Z,34.70
2019-04-16T19:52:45.441Z,34.90
2019-04-16T19:54:15.890Z,34.90
2019-04-16T19:55:49.878Z,34.90